Time;durP1;ratioP1;P1;durP2;ratioP2;P2;SDS_P1;SDS_P2;PMS_P1;PMS_P2;Temp;Humidity;BMP_temperature;BMP_pressure;BME280_temperature;BME280_humidity;BME280_pressure;Samples;Min_cycle;Max_cycle;Signal;HPM_P1;HPM_P2
2022/03/27 00:01:07;;;;;;;23.23;14.33;;;;;;;3.86;62.25;98786.09;6182877;28;20226;-64
2022/03/27 00:04:09;;;;;;;23.47;13.13;;;;;;;3.84;62.05;98786.13;6184536;28;20238;-64
2022/03/27 00:07:11;;;;;;;22.37;12.73;;;;;;;3.79;62.00;98795.91;6182736;28;20231;-65
2022/03/27 00:10:13;;;;;;;28.10;14.13;;;;;;;3.77;62.67;98799.47;6179618;28;20311;-64
2022/03/27 00:13:21;;;;;;;22.70;15.00;;;;;;;3.69;62.76;98800.56;6183383;28;20226;-65
2022/03/27 00:16:23;;;;;;;24.00;15.07;;;;;;;3.62;63.23;98806.06;6181101;28;20620;-66
2022/03/27 00:19:26;;;;;;;21.33;14.67;;;;;;;3.56;63.37;98807.13;6180513;28;20236;-65
2022/03/27 00:22:28;;;;;;;20.40;13.57;;;;;;;3.55;63.50;98801.97;6182352;28;20245;-65
2022/03/27 00:25:29;;;;;;;25.40;16.60;;;;;;;3.58;63.78;98802.72;6175399;28;20235;-65
2022/03/27 00:28:32;;;;;;;29.43;14.83;;;;;;;3.63;63.27;98805.16;6180599;28;20721;-65
2022/03/27 00:31:38;;;;;;;30.43;16.93;;;;;;;3.62;63.71;98800.84;6179887;28;20226;-65
2022/03/27 00:34:40;;;;;;;25.17;15.30;;;;;;;3.60;63.53;98806.09;6176204;28;20308;-64
2022/03/27 00:37:42;;;;;;;24.97;14.83;;;;;;;3.56;64.05;98801.91;6181792;28;20521;-65
2022/03/27 00:40:44;;;;;;;26.13;15.80;;;;;;;3.52;64.35;98808.13;6176649;28;20232;-64
2022/03/27 00:43:46;;;;;;;27.30;16.33;;;;;;;3.53;63.86;98804.63;6180619;28;20249;-66
2022/03/27 00:46:47;;;;;;;24.33;16.53;;;;;;;3.52;64.27;98810.75;6178978;28;20602;-64
2022/03/27 00:49:49;;;;;;;29.63;16.90;;;;;;;3.49;64.64;98802.19;6178129;28;20272;-64
2022/03/27 00:52:51;;;;;;;30.60;17.50;;;;;;;3.47;64.76;98798.78;6180232;28;20257;-64
2022/03/27 00:55:54;;;;;;;27.93;16.50;;;;;;;3.46;64.82;98797.06;6172737;28;20221;-64
2022/03/27 00:58:56;;;;;;;22.43;15.80;;;;;;;3.43;64.99;98795.41;6186681;28;20654;-65
2022/03/27 01:02:00;;;;;;;26.53;16.07;;;;;;;3.41;64.72;98799.81;6182877;28;20223;-66
2022/03/27 01:05:15;;;;;;;25.37;16.80;;;;;;;3.43;64.88;98799.75;6190868;28;20238;-65
2022/03/27 01:09:35;;;;;;;25.07;16.40;;;;;;;3.41;65.31;98805.03;6186349;28;20271;-65
2022/03/27 01:11:42;;;;;;;26.73;16.23;;;;;;;3.41;65.20;98802.41;6183010;28;20643;-65
2022/03/27 01:14:45;;;;;;;22.80;15.37;;;;;;;3.38;65.87;98805.16;6181767;28;20615;-65
2022/03/27 01:17:47;;;;;;;25.07;15.23;;;;;;;3.38;65.97;98802.53;6180468;28;20282;-65
2022/03/27 01:20:49;;;;;;;24.50;14.90;;;;;;;3.34;65.73;98795.72;6172054;28;20623;-65
2022/03/27 01:23:52;;;;;;;21.10;14.43;;;;;;;3.29;66.17;98800.25;6184879;28;20603;-65
2022/03/27 01:26:54;;;;;;;21.60;14.50;;;;;;;3.25;66.33;98807.31;6182479;28;20630;-64
2022/03/27 01:29:57;;;;;;;23.23;15.20;;;;;;;3.24;66.21;98803.00;6182747;28;20245;-65
2022/03/27 01:32:59;;;;;;;20.67;13.07;;;;;;;3.25;66.25;98799.47;6184560;28;20322;-65
2022/03/27 01:36:01;;;;;;;21.80;13.53;;;;;;;3.24;66.00;98797.78;6187086;28;20228;-65
2022/03/27 01:39:09;;;;;;;21.37;13.37;;;;;;;3.22;66.56;98796.09;6181221;28;20597;-66
2022/03/27 01:42:12;;;;;;;18.93;13.00;;;;;;;3.24;66.04;98792.56;6189834;28;20205;-65
2022/03/27 01:45:14;;;;;;;20.13;13.50;;;;;;;3.27;66.50;98794.22;6181440;28;20245;-66
2022/03/27 01:48:16;;;;;;;20.50;13.80;;;;;;;3.32;66.84;98784.47;6190105;28;20219;-65
2022/03/27 01:51:18;;;;;;;20.93;13.33;;;;;;;3.36;67.24;98785.22;6180585;28;20225;-66
2022/03/27 01:54:22;;;;;;;21.27;12.87;;;;;;;3.40;67.04;98787.66;6188870;28;20225;-65
2022/03/27 01:57:24;;;;;;;22.63;12.80;;;;;;;3.50;67.53;98788.19;6176198;28;20233;-65
2022/03/27 02:00:26;;;;;;;21.03;13.37;;;;;;;3.62;67.67;98790.41;6182536;28;20714;-65
2022/03/27 02:03:28;;;;;;;19.40;12.37;;;;;;;3.75;66.77;98790.84;6182278;28;20289;-66
2022/03/27 02:06:32;;;;;;;22.67;14.13;;;;;;;3.85;67.60;98790.47;6192311;28;20239;-66
2022/03/27 02:09:34;;;;;;;17.43;12.50;;;;;;;3.97;67.14;98797.84;6177603;28;20293;-66
2022/03/27 02:12:37;;;;;;;17.17;12.27;;;;;;;4.07;67.59;98783.56;6183124;28;20270;-67
2022/03/27 02:15:39;;;;;;;20.10;11.60;;;;;;;4.09;67.47;98786.13;6189541;28;20225;-66
2022/03/27 02:18:42;;;;;;;19.87;12.63;;;;;;;4.12;67.47;98792.97;6175071;28;20743;-65
2022/03/27 02:21:44;;;;;;;18.37;12.17;;;;;;;4.12;67.94;98787.75;6181471;28;20248;-65
2022/03/27 02:24:46;;;;;;;19.20;12.33;;;;;;;4.09;68.22;98791.34;6175631;28;20238;-65
2022/03/27 02:27:49;;;;;;;19.47;12.80;;;;;;;4.07;68.54;98804.47;6182397;28;20235;-65
2022/03/27 02:30:52;;;;;;;16.37;11.27;;;;;;;4.07;68.10;98804.47;6182694;28;20229;-64
2022/03/27 02:33:54;;;;;;;20.03;11.20;;;;;;;4.00;68.71;98799.47;6181478;28;20227;-65
2022/03/27 02:36:55;;;;;;;19.43;11.80;;;;;;;3.96;68.88;98803.97;6179059;28;20849;-64
2022/03/27 02:39:57;;;;;;;15.20;11.10;;;;;;;3.89;68.82;98807.72;6177383;28;20479;-67
2022/03/27 02:42:59;;;;;;;18.70;11.83;;;;;;;3.79;68.88;98822.00;6188607;28;20711;-67
2022/03/27 02:46:01;;;;;;;16.37;10.70;;;;;;;3.72;69.02;98818.75;6186741;28;20227;-65
2022/03/27 02:49:03;;;;;;;19.97;12.47;;;;;;;3.72;69.61;98823.97;6178762;28;20259;-65
2022/03/27 02:52:05;;;;;;;20.00;11.80;;;;;;;3.72;69.71;98817.88;6185814;28;20226;-65
2022/03/27 02:55:08;;;;;;;25.13;12.13;;;;;;;3.64;69.50;98820.78;6185223;28;20257;-64
2022/03/27 02:58:10;;;;;;;19.03;10.87;;;;;;;3.61;69.69;98823.47;6189616;28;20234;-66
2022/03/27 03:01:12;;;;;;;18.27;11.43;;;;;;;3.60;70.25;98819.16;6185464;28;20666;-65
2022/03/27 03:04:15;;;;;;;19.60;12.53;;;;;;;3.60;70.31;98826.13;6178778;28;20231;-65
2022/03/27 03:07:18;;;;;;;16.40;11.50;;;;;;;3.57;69.86;98829.72;6176951;28;20238;-65
2022/03/27 03:10:20;;;;;;;15.60;11.37;;;;;;;3.56;70.73;98830.63;6176827;28;20226;-64
2022/03/27 03:13:22;;;;;;;19.03;11.37;;;;;;;3.53;70.45;98829.88;6174955;28;20240;-65
2022/03/27 03:16:25;;;;;;;18.80;10.97;;;;;;;3.49;70.41;98833.50;6181093;28;20238;-64
2022/03/27 03:19:28;;;;;;;14.97;11.47;;;;;;;3.45;70.74;98844.94;6185576;28;20236;-64
2022/03/27 03:22:31;;;;;;;15.97;11.43;;;;;;;3.38;71.19;98846.03;6183084;28;20274;-65
2022/03/27 03:25:33;;;;;;;16.10;11.57;;;;;;;3.34;71.44;98851.34;6176953;28;20235;-65
2022/03/27 03:28:55;;;;;;;17.37;11.10;;;;;;;3.34;71.25;98850.50;6179758;28;20273;-65
2022/03/27 03:31:56;;;;;;;16.20;11.10;;;;;;;3.33;71.45;98857.47;6184256;28;20235;-67
2022/03/27 03:34:58;;;;;;;15.13;12.00;;;;;;;3.38;71.26;98865.16;6178069;28;20297;-65
2022/03/27 03:38:00;;;;;;;17.60;10.33;;;;;;;3.40;71.37;98860.72;6181826;28;20234;-65
2022/03/27 03:41:02;;;;;;;18.50;12.10;;;;;;;3.43;71.57;98871.06;6184620;28;20784;-64
2022/03/27 03:44:04;;;;;;;18.23;11.23;;;;;;;3.51;72.08;98874.28;6177999;28;20238;-65
2022/03/27 03:47:06;;;;;;;15.97;11.03;;;;;;;3.55;71.65;98875.03;6185358;28;20225;-65
2022/03/27 03:50:10;;;;;;;17.23;10.73;;;;;;;3.58;71.62;98880.16;6171350;28;20225;-66
2022/03/27 03:53:11;;;;;;;15.60;10.73;;;;;;;3.61;71.46;98890.47;6181831;28;20765;-64
2022/03/27 03:56:14;;;;;;;18.37;12.30;;;;;;;3.60;71.57;98889.63;6177917;28;20233;-65
2022/03/27 03:59:16;;;;;;;16.60;11.00;;;;;;;3.62;71.35;98892.19;6174959;28;20221;-65
2022/03/27 04:02:29;;;;;;;18.07;11.93;;;;;;;3.65;72.03;98894.72;6179498;28;20231;-65
2022/03/27 04:05:32;;;;;;;18.83;11.83;;;;;;;3.67;71.86;98893.75;6182364;28;20222;-66
2022/03/27 04:08:36;;;;;;;16.50;11.10;;;;;;;3.66;72.10;98906.88;6178834;28;20238;-64
2022/03/27 04:11:38;;;;;;;18.27;11.97;;;;;;;3.65;72.48;98908.63;6181940;28;20231;-65
2022/03/27 04:14:40;;;;;;;17.10;11.60;;;;;;;3.63;72.14;98902.59;6176881;28;20234;-64
2022/03/27 04:17:43;;;;;;;14.70;10.70;;;;;;;3.63;72.02;98909.56;6179911;28;20275;-65
2022/03/27 04:20:46;;;;;;;16.77;10.27;;;;;;;3.61;72.23;98912.22;6186251;28;20226;-64
2022/03/27 04:23:47;;;;;;;16.17;11.40;;;;;;;3.62;71.70;98911.31;6180689;28;20230;-64
2022/03/27 04:26:49;;;;;;;17.23;10.77;;;;;;;3.58;71.89;98917.56;6187076;28;20219;-66
2022/03/27 04:29:51;;;;;;;17.17;10.33;;;;;;;3.55;72.14;98920.25;6176178;28;20243;-65
2022/03/27 04:32:53;;;;;;;20.23;11.03;;;;;;;3.52;71.92;98928.19;6182439;28;20246;-65
2022/03/27 04:35:55;;;;;;;19.30;12.10;;;;;;;3.48;72.28;98928.34;6178804;28;20245;-65
2022/03/27 04:38:57;;;;;;;15.33;11.27;;;;;;;3.40;72.27;98925.94;6184953;28;20720;-64
2022/03/27 04:41:59;;;;;;;16.80;10.77;;;;;;;3.34;72.41;98936.59;6187845;28;20242;-67
2022/03/27 04:45:01;;;;;;;20.47;12.37;;;;;;;3.27;72.93;98938.53;6171279;28;20232;-67
2022/03/27 04:48:03;;;;;;;15.67;10.50;;;;;;;3.21;72.65;98935.25;6177254;28;20231;-67
2022/03/27 04:51:05;;;;;;;15.00;10.63;;;;;;;3.13;72.76;98948.53;6174459;28;20715;-65
2022/03/27 04:54:07;;;;;;;17.80;10.37;;;;;;;3.08;72.75;98941.75;6179695;28;20205;-65
2022/03/27 04:57:09;;;;;;;16.57;10.90;;;;;;;3.02;73.29;98944.53;6182912;28;20238;-65
2022/03/27 05:00:14;;;;;;;15.00;10.60;;;;;;;2.97;72.77;98940.31;6176413;28;20601;-65
2022/03/27 05:03:16;;;;;;;17.27;11.07;;;;;;;2.95;73.29;98944.72;6174149;28;20217;-65
2022/03/27 05:06:19;;;;;;;16.80;10.73;;;;;;;2.92;73.41;98951.78;6176390;28;20231;-64
2022/03/27 05:09:21;;;;;;;17.10;11.27;;;;;;;2.90;73.74;98950.97;6181331;28;20229;-65
2022/03/27 05:12:23;;;;;;;16.47;10.33;;;;;;;2.91;73.21;98955.28;6169462;28;20234;-66
2022/03/27 05:15:24;;;;;;;14.43;10.30;;;;;;;2.93;74.07;98959.56;6177208;28;20230;-65
2022/03/27 05:18:26;;;;;;;15.67;10.83;;;;;;;2.96;74.58;98956.88;6187043;28;20221;-65
2022/03/27 05:21:28;;;;;;;15.03;9.90;;;;;;;2.95;74.12;98962.97;6174814;28;20234;-66
2022/03/27 05:24:30;;;;;;;16.30;10.60;;;;;;;3.00;73.81;98959.38;6187215;28;20585;-65
2022/03/27 05:27:32;;;;;;;15.30;9.97;;;;;;;3.02;73.91;98960.19;6172857;28;20684;-65
2022/03/27 05:30:34;;;;;;;14.10;9.97;;;;;;;3.04;73.71;98966.22;6172618;28;20430;-65
2022/03/27 05:33:37;;;;;;;14.70;9.40;;;;;;;3.06;73.87;98959.19;6175450;28;20613;-66
2022/03/27 05:36:39;;;;;;;13.10;8.93;;;;;;;3.08;73.95;98960.88;6177977;28;20230;-65
2022/03/27 05:39:40;;;;;;;14.63;9.20;;;;;;;3.13;73.93;98966.78;6179605;28;20229;-66
2022/03/27 05:42:42;;;;;;;14.57;8.13;;;;;;;3.24;73.39;98972.53;6176851;28;20227;-64
2022/03/27 05:45:44;;;;;;;13.17;9.37;;;;;;;3.41;74.12;98979.84;6180458;28;20231;-65
2022/03/27 05:48:47;;;;;;;11.37;8.20;;;;;;;3.50;73.91;98981.31;6173829;28;20241;-67
2022/03/27 05:51:50;;;;;;;11.60;8.63;;;;;;;3.61;73.81;98985.31;6182269;28;20296;-65
2022/03/27 05:54:52;;;;;;;12.70;9.30;;;;;;;3.75;74.17;98984.88;6170390;28;20234;-65
2022/03/27 05:57:54;;;;;;;10.33;7.73;;;;;;;3.87;74.41;98981.03;6164676;28;20231;-67
2022/03/27 06:00:56;;;;;;;12.53;8.33;;;;;;;3.99;73.84;98988.47;6178829;28;20224;-67
2022/03/27 06:03:58;;;;;;;12.93;7.87;;;;;;;4.10;73.40;98991.53;6171896;28;20219;-65
2022/03/27 06:07:00;;;;;;;10.33;7.50;;;;;;;4.17;73.55;98994.81;6171919;28;20918;-66
2022/03/27 06:10:02;;;;;;;11.93;7.77;;;;;;;4.25;73.22;98998.03;6178486;28;20234;-65
2022/03/27 06:13:22;;;;;;;11.70;7.87;;;;;;;4.38;73.18;99002.81;6176820;28;20620;-65
2022/03/27 06:16:24;;;;;;;14.73;9.40;;;;;;;4.54;73.55;99002.25;6180600;28;20231;-66
2022/03/27 06:19:30;;;;;;;14.33;9.33;;;;;;;4.75;73.64;98999.75;6182775;28;20601;-65
2022/03/27 06:22:32;;;;;;;14.30;8.87;;;;;;;4.94;72.90;98999.94;6180296;28;20248;-65
2022/03/27 06:25:35;;;;;;;11.17;8.40;;;;;;;5.09;73.45;98996.72;6178096;28;20323;-65
2022/03/27 06:28:36;;;;;;;11.53;8.60;;;;;;;5.43;73.21;99000.72;6180226;28;20571;-65
2022/03/27 06:31:38;;;;;;;15.70;8.10;;;;;;;5.82;71.86;99003.53;6176179;28;20231;-65
2022/03/27 06:34:40;;;;;;;12.00;8.27;;;;;;;6.26;71.09;98994.75;6177495;28;20311;-65
2022/03/27 06:37:43;;;;;;;10.93;7.73;;;;;;;6.64;69.47;99002.75;6179941;28;20225;-64
2022/03/27 06:40:45;;;;;;;9.53;7.20;;;;;;;6.94;68.99;98995.31;6177210;28;20229;-64
2022/03/27 06:43:47;;;;;;;10.03;7.50;;;;;;;7.06;68.68;99000.00;6179624;28;20605;-65
2022/03/27 06:46:49;;;;;;;11.13;8.27;;;;;;;7.19;68.23;99002.91;6166973;28;20225;-65
2022/03/27 06:49:52;;;;;;;10.60;7.87;;;;;;;7.35;67.38;99001.31;6176694;28;20232;-64
2022/03/27 06:52:54;;;;;;;8.43;6.73;;;;;;;7.43;66.94;99007.06;6167850;28;20364;-65
2022/03/27 06:55:56;;;;;;;7.93;5.80;;;;;;;7.48;66.74;99004.22;6176039;28;20221;-66
2022/03/27 06:58:58;;;;;;;11.40;8.13;;;;;;;7.53;66.49;99004.84;6171602;28;20231;-65
2022/03/27 07:05:22;;;;;;;11.50;8.53;;;;;;;7.76;65.59;99016.00;6177051;28;20230;-67
2022/03/27 07:08:28;;;;;;;10.67;8.00;;;;;;;7.91;64.99;99008.28;6165929;28;20221;-65
2022/03/27 07:11:30;;;;;;;10.27;7.60;;;;;;;8.01;64.82;99015.66;6164392;28;20224;-65
2022/03/27 07:14:31;;;;;;;8.77;6.93;;;;;;;8.07;64.56;99015.38;6173647;28;20238;-65
2022/03/27 07:17:42;;;;;;;11.93;9.33;;;;;;;8.22;63.93;99013.75;6168564;28;20877;-66
2022/03/27 07:24:02;;;;;;;13.93;8.53;;;;;;;8.55;62.83;99024.41;6125172;28;20233;-37
2022/03/27 07:27:04;;;;;;;14.13;10.00;;;;;;;8.68;62.00;99012.34;6128170;28;20603;-37
2022/03/27 07:30:07;;;;;;;12.73;9.40;;;;;;;8.79;61.52;99023.13;6123810;28;20227;-37
2022/03/27 07:33:09;;;;;;;12.23;8.43;;;;;;;8.95;60.49;99017.94;6126705;28;20218;-37
2022/03/27 07:36:12;;;;;;;10.50;7.80;;;;;;;9.10;59.77;99018.91;6126865;28;20601;-37
2022/03/27 07:39:14;;;;;;;11.50;7.90;;;;;;;9.16;59.37;99024.72;6125261;28;20707;-37
2022/03/27 07:42:16;;;;;;;9.70;7.10;;;;;;;9.26;59.76;99030.34;6123204;28;20851;-37
2022/03/27 07:45:21;;;;;;;10.97;8.13;;;;;;;9.32;58.83;99027.38;6126679;28;20245;-37
2022/03/27 07:48:26;;;;;;;13.23;8.90;;;;;;;9.43;58.86;99029.44;6123677;28;20279;-37
2022/03/27 07:51:28;;;;;;;11.13;7.60;;;;;;;9.49;58.67;99035.19;6120067;28;20238;-43
2022/03/27 08:05:44;;;;;;;12.73;8.37;;;;;;;9.75;56.00;99014.50;6226619;27;22031;-35
2022/03/27 08:08:46;;;;;;;10.87;8.10;;;;;;;9.85;56.20;99016.53;6232617;28;20350;-34
2022/03/27 08:11:48;;;;;;;10.90;7.33;;;;;;;10.01;54.04;99013.88;6224578;28;20227;-40
2022/03/27 08:14:50;;;;;;;11.00;7.30;;;;;;;10.29;54.30;99011.38;6227354;28;20236;-44
2022/03/27 08:17:53;;;;;;;10.03;7.17;;;;;;;10.54;52.86;99018.72;6229026;28;20242;-40
2022/03/27 08:20:56;;;;;;;9.13;7.30;;;;;;;10.73;51.90;99010.56;6223692;28;20227;-40
2022/03/27 08:23:58;;;;;;;9.73;6.77;;;;;;;10.93;51.36;99018.16;6217932;28;20281;-40
2022/03/27 08:27:02;;;;;;;10.07;7.57;;;;;;;10.97;50.35;99017.03;6219387;28;20262;-41
2022/03/27 08:30:06;;;;;;;10.03;7.23;;;;;;;11.00;50.68;99011.53;6223175;28;20589;-41
2022/03/27 08:33:09;;;;;;;9.77;7.07;;;;;;;11.13;50.30;99016.94;6221010;28;20216;-40
2022/03/27 08:36:11;;;;;;;11.87;7.67;;;;;;;11.01;50.07;99007.97;6209491;28;20212;-40
2022/03/27 08:39:13;;;;;;;8.23;7.00;;;;;;;11.09;49.76;99013.63;6217133;28;20227;-42
2022/03/27 08:42:19;;;;;;;11.40;7.50;;;;;;;11.09;50.80;99010.13;6227134;28;20219;-41
2022/03/27 08:45:22;;;;;;;7.80;6.90;;;;;;;11.01;50.20;99013.25;6228496;28;20244;-41
2022/03/27 08:48:24;;;;;;;9.60;7.30;;;;;;;10.95;49.73;99020.69;6223343;28;20717;-40
2022/03/27 08:51:40;;;;;;;8.07;6.70;;;;;;;11.12;50.68;99020.53;6227596;28;20239;-41
2022/03/27 08:54:45;;;;;;;10.23;8.20;;;;;;;11.05;50.15;99017.41;6220856;28;20769;-40
2022/03/27 08:57:55;;;;;;;12.20;7.77;;;;;;;10.98;50.10;99029.28;6222967;28;20720;-40
2022/03/27 09:00:58;;;;;;;10.93;6.87;;;;;;;11.54;49.42;99024.09;6218939;28;20918;-40
2022/03/27 09:04:00;;;;;;;10.77;7.73;;;;;;;11.86;48.58;99024.75;6222075;28;20247;-43
2022/03/27 09:07:03;;;;;;;10.53;7.83;;;;;;;11.74;48.43;99031.63;6222498;28;20239;-42
2022/03/27 09:10:10;;;;;;;8.83;6.83;;;;;;;11.91;48.32;99033.22;6230916;28;20232;-42
2022/03/27 09:13:17;;;;;;;10.07;7.53;;;;;;;11.86;48.77;99032.69;6233673;28;20238;-40
2022/03/27 09:16:19;;;;;;;9.67;6.93;;;;;;;11.91;48.47;99025.28;6189545;23;20250;-82
2022/03/27 09:19:39;;;;;;;10.07;7.33;;;;;;;12.06;47.53;99034.91;6171766;28;20775;-82
2022/03/27 09:22:41;;;;;;;12.33;7.70;;;;;;;12.20;47.99;99021.59;6173384;28;20372;-87
2022/03/27 09:25:46;;;;;;;11.30;8.40;;;;;;;12.30;47.93;99025.34;6173763;28;20235;-84
2022/03/27 09:28:53;;;;;;;9.63;8.17;;;;;;;12.31;47.66;99031.47;6159212;28;20226;-82
2022/03/27 09:31:58;;;;;;;10.80;7.50;;;;;;;12.50;47.57;99030.16;6151301;28;20225;-83
2022/03/27 09:35:35;;;;;;;10.60;8.37;;;;;;;12.58;47.24;99032.28;6158333;28;20230;-82
2022/03/27 09:38:38;;;;;;;11.43;7.97;;;;;;;12.67;46.63;99018.47;6166324;28;20203;-81
2022/03/27 09:41:48;;;;;;;13.10;7.90;;;;;;;12.51;47.05;99023.06;6174208;28;20227;-83
2022/03/27 09:45:17;;;;;;;8.97;7.70;;;;;;;12.52;47.23;99016.81;6166700;28;21011;-90
2022/03/27 09:48:19;;;;;;;9.77;7.23;;;;;;;12.72;46.83;99018.13;6168761;28;20584;-83
2022/03/27 09:51:21;;;;;;;10.70;8.17;;;;;;;12.87;47.18;99017.09;6180066;28;20243;-82
2022/03/27 09:54:25;;;;;;;11.67;7.50;;;;;;;12.88;46.82;99014.31;6174531;28;20719;-83
2022/03/27 09:57:56;;;;;;;10.43;8.03;;;;;;;12.90;46.65;99016.88;6156170;28;20325;-83
2022/03/27 10:01:17;;;;;;;9.23;7.97;;;;;;;12.61;47.91;99018.00;6170758;28;20238;-82
2022/03/27 10:04:20;;;;;;;10.93;8.20;;;;;;;12.59;47.96;99012.81;6167968;28;20825;-82
2022/03/27 10:07:24;;;;;;;11.63;7.80;;;;;;;12.78;47.35;99017.69;6174849;28;20227;-82
2022/03/27 10:10:27;;;;;;;11.23;7.83;;;;;;;12.56;47.00;99013.88;6169196;28;20291;-82
2022/03/27 10:13:29;;;;;;;10.47;7.77;;;;;;;12.58;48.03;99005.81;6167509;28;20226;-82
2022/03/27 10:16:46;;;;;;;8.27;6.93;;;;;;;13.05;46.88;99004.38;6171770;28;20235;-82
2022/03/27 10:19:54;;;;;;;9.63;7.07;;;;;;;13.57;45.83;98997.16;6172796;28;20277;-82
2022/03/27 10:23:09;;;;;;;12.13;7.23;;;;;;;14.00;44.70;99002.00;6186952;28;20298;-82
2022/03/27 10:26:14;;;;;;;10.73;7.47;;;;;;;13.92;45.09;98993.75;6180108;28;20316;-82
2022/03/27 10:29:16;;;;;;;8.23;6.30;;;;;;;14.32;44.19;98996.97;6175412;28;20244;-83
2022/03/27 10:32:19;;;;;;;9.93;7.70;;;;;;;14.25;44.03;98993.94;6184306;28;20263;-82
2022/03/27 10:35:58;;;;;;;15.27;8.83;;;;;;;13.88;45.14;99000.22;6163440;28;20245;-82
2022/03/27 10:39:14;;;;;;;10.03;7.60;;;;;;;14.19;44.70;98990.88;6189577;28;20235;-82
2022/03/27 10:42:19;;;;;;;9.80;7.73;;;;;;;14.42;44.07;98979.41;6161036;28;20679;-82
2022/03/27 10:45:22;;;;;;;8.63;6.70;;;;;;;14.64;44.29;98989.28;6182896;28;20241;-82
2022/03/27 10:48:37;;;;;;;12.00;8.33;;;;;;;14.99;43.62;98975.91;6158377;28;20232;-82
2022/03/27 10:51:42;;;;;;;12.87;9.57;;;;;;;14.02;44.34;98970.88;6173603;28;20221;-82
2022/03/27 10:54:58;;;;;;;10.83;8.70;;;;;;;14.04;44.84;98964.50;6170835;28;20964;-82
2022/03/27 10:58:00;;;;;;;9.40;8.40;;;;;;;14.77;44.19;98955.50;6172933;28;20236;-82
2022/03/27 11:01:09;;;;;;;10.37;8.30;;;;;;;15.80;42.34;98951.72;6166790;28;20236;-82
2022/03/27 11:04:15;;;;;;;12.03;10.23;;;;;;;15.59;43.76;98953.47;6172427;28;20730;-82
2022/03/27 11:07:17;;;;;;;10.93;9.33;;;;;;;15.66;42.82;98946.69;6178701;28;20561;-82
2022/03/27 11:10:41;;;;;;;10.13;9.07;;;;;;;15.98;42.33;98944.88;6159778;28;20229;-82
2022/03/27 11:13:44;;;;;;;11.07;9.07;;;;;;;16.78;41.03;98942.59;6173238;28;20229;-82
2022/03/27 11:17:05;;;;;;;11.00;9.33;;;;;;;16.88;40.54;98932.81;6179141;28;20244;-82
2022/03/27 11:20:30;;;;;;;12.83;9.97;;;;;;;16.36;40.88;98936.41;6160458;28;20226;-82
2022/03/27 11:23:36;;;;;;;10.90;9.40;;;;;;;16.58;40.72;98933.59;6168377;28;20244;-82
2022/03/27 11:26:38;;;;;;;11.77;9.23;;;;;;;16.70;40.43;98923.75;6140755;28;20226;-82
2022/03/27 11:30:10;;;;;;;9.30;8.30;;;;;;;16.94;39.71;98918.13;6162303;28;20244;-82
2022/03/27 11:33:21;;;;;;;9.10;7.43;;;;;;;17.72;39.14;98919.28;6167923;28;20768;-83
2022/03/27 11:36:24;;;;;;;7.57;6.73;;;;;;;18.18;37.99;98905.25;6158838;28;20733;-84
2022/03/27 11:39:29;;;;;;;8.37;6.90;;;;;;;18.74;37.30;98905.34;6168065;28;20229;-83
2022/03/27 11:42:33;;;;;;;9.20;7.10;;;;;;;18.92;36.97;98903.63;6170368;28;20711;-84
2022/03/27 11:45:37;;;;;;;9.80;7.77;;;;;;;18.20;37.07;98896.09;6170073;28;20233;-84
2022/03/27 11:48:39;;;;;;;10.77;8.33;;;;;;;17.80;37.51;98896.22;6161461;28;20267;-83
2022/03/27 11:51:41;;;;;;;10.97;7.47;;;;;;;18.04;37.78;98895.84;6173697;28;20643;-83
2022/03/27 11:54:44;;;;;;;7.53;6.83;;;;;;;18.77;36.12;98900.53;6180780;28;20635;-83
2022/03/27 11:57:53;;;;;;;7.17;6.43;;;;;;;18.75;36.59;98883.81;6172943;28;20221;-83
2022/03/27 12:01:03;;;;;;;10.63;6.90;;;;;;;18.63;36.32;98886.81;6183836;28;20280;-83
2022/03/27 12:04:08;;;;;;;8.23;6.43;;;;;;;17.97;37.17;98876.00;6160955;28;20224;-83
2022/03/27 12:07:10;;;;;;;6.17;4.97;;;;;;;18.84;36.76;98868.72;6158832;28;20712;-84
2022/03/27 12:10:12;;;;;;;6.87;6.13;;;;;;;19.43;34.91;98856.75;6173183;28;20217;-83
2022/03/27 12:13:27;;;;;;;7.67;5.87;;;;;;;19.46;33.97;98867.19;6175980;28;20330;-83
2022/03/27 12:16:31;;;;;;;6.67;5.50;;;;;;;18.98;35.01;98862.03;6174014;28;20812;-84
2022/03/27 12:19:34;;;;;;;5.73;5.13;;;;;;;19.04;34.70;98854.28;6153430;28;20320;-83
2022/03/27 12:22:44;;;;;;;105.17;13.10;;;;;;;18.88;34.90;98848.69;6163002;28;20241;-84
2022/03/27 12:29:50;;;;;;;7.53;5.57;;;;;;;20.43;33.53;98827.09;6182910;28;20237;-85
2022/03/27 12:32:52;;;;;;;8.77;6.00;;;;;;;20.61;32.19;98823.34;6176099;28;20225;-83
2022/03/27 12:36:05;;;;;;;5.87;5.27;;;;;;;20.73;31.71;98821.25;6158474;28;20233;-85
2022/03/27 12:39:13;;;;;;;5.47;4.90;;;;;;;20.34;32.56;98823.47;6134721;28;20566;-84
2022/03/27 12:42:37;;;;;;;6.17;5.13;;;;;;;20.54;32.55;98814.25;6164690;28;20209;-84
2022/03/27 12:45:41;;;;;;;5.60;5.00;;;;;;;20.49;32.63;98823.75;6175218;28;20704;-82
2022/03/27 12:48:56;;;;;;;5.20;4.73;;;;;;;20.87;31.11;98804.50;6163986;28;20310;-85
2022/03/27 12:51:58;;;;;;;9.33;5.27;;;;;;;20.58;32.08;98810.25;6186667;28;20240;-83
2022/03/27 12:55:04;;;;;;;4.97;4.33;;;;;;;20.97;31.74;98812.44;6181433;28;20225;-83
2022/03/27 12:58:06;;;;;;;4.80;4.30;;;;;;;21.53;30.81;98808.31;6180480;28;20232;-84
2022/03/27 13:01:19;;;;;;;5.70;4.53;;;;;;;21.46;30.31;98804.63;6166328;28;20228;-84
2022/03/27 13:04:21;;;;;;;4.33;3.93;;;;;;;21.15;30.58;98786.38;6182772;28;20236;-84
2022/03/27 13:07:58;;;;;;;5.47;4.83;;;;;;;20.49;31.51;98792.41;6180880;28;20236;-83
2022/03/27 13:11:01;;;;;;;5.80;3.93;;;;;;;20.15;32.24;98802.22;6181011;28;20229;-84
2022/03/27 13:14:03;;;;;;;4.70;3.90;;;;;;;19.73;32.70;98791.31;6181779;28;20233;-83
2022/03/27 13:17:13;;;;;;;3.90;3.50;;;;;;;20.21;32.06;98783.66;6183277;28;20239;-83
2022/03/27 13:20:28;;;;;;;3.50;2.90;;;;;;;20.16;31.71;98779.78;6165900;28;20235;-84
2022/03/27 13:23:30;;;;;;;3.47;3.00;;;;;;;20.29;31.20;98774.81;6180504;28;20237;-83
2022/03/27 13:26:33;;;;;;;3.17;2.73;;;;;;;20.41;31.58;98768.25;6181654;28;20240;-84
2022/03/27 13:29:36;;;;;;;4.17;2.57;;;;;;;20.58;31.29;98786.09;6182611;28;20598;-84
2022/03/27 13:32:38;;;;;;;3.30;2.50;;;;;;;20.65;30.68;98775.59;6185313;28;20221;-84
2022/03/27 13:35:46;;;;;;;2.77;2.20;;;;;;;21.54;29.41;98770.53;6165152;28;20221;-83
2022/03/27 13:38:48;;;;;;;4.23;2.40;;;;;;;22.43;28.87;98765.16;6180956;28;20243;-84
2022/03/27 13:45:11;;;;;;;4.30;3.00;;;;;;;24.91;25.32;98753.97;6134479;28;20230;-83
2022/03/27 13:48:13;;;;;;;3.97;3.60;;;;;;;24.83;24.60;98754.06;6180928;28;20224;-83
2022/03/27 13:51:15;;;;;;;3.90;2.87;;;;;;;25.98;23.80;98755.81;6180651;28;20224;-81
2022/03/27 13:54:19;;;;;;;3.63;2.67;;;;;;;28.30;21.38;98750.41;6164260;28;20683;-81
2022/03/27 13:57:21;;;;;;;2.97;2.63;;;;;;;30.04;19.47;98735.69;6180411;28;20232;-81
2022/03/27 14:00:23;;;;;;;3.37;2.60;;;;;;;30.38;19.03;98744.38;6179531;28;20771;-82
2022/03/27 14:03:28;;;;;;;3.90;2.50;;;;;;;31.52;18.04;98741.00;6181549;28;20225;-82
2022/03/27 14:06:31;;;;;;;3.43;2.90;;;;;;;30.64;17.86;98738.72;6180346;28;20312;-82
2022/03/27 14:09:34;;;;;;;4.10;3.37;;;;;;;30.23;18.49;98733.84;6186845;28;20226;-81
2022/03/27 14:12:36;;;;;;;3.47;2.97;;;;;;;30.21;18.52;98729.69;6182314;28;20233;-82
2022/03/27 14:15:39;;;;;;;4.07;2.97;;;;;;;30.25;18.90;98722.72;6160200;28;20236;-82
2022/03/27 14:18:42;;;;;;;2.77;2.57;;;;;;;27.70;21.49;98722.38;6180243;28;20708;-82
2022/03/27 14:21:44;;;;;;;3.13;2.83;;;;;;;24.46;24.59;98722.59;6181027;28;20259;-82
2022/03/27 14:24:49;;;;;;;3.37;2.87;;;;;;;21.15;29.24;98721.09;6164258;28;20686;-81
2022/03/27 14:27:51;;;;;;;3.40;2.77;;;;;;;20.23;31.14;98724.53;6180003;28;20237;-81
2022/03/27 14:30:53;;;;;;;3.10;2.30;;;;;;;19.98;31.82;98712.78;6164025;28;20637;-81
2022/03/27 14:33:55;;;;;;;5.30;2.77;;;;;;;20.07;31.70;98711.00;6165459;28;20291;-81
2022/03/27 14:36:58;;;;;;;4.20;3.53;;;;;;;18.91;33.54;98714.66;6165097;28;20331;-82
2022/03/27 14:40:00;;;;;;;3.33;3.03;;;;;;;18.03;34.90;98710.66;6182060;28;20726;-81
2022/03/27 14:43:02;;;;;;;3.63;2.83;;;;;;;17.79;35.12;98707.59;6181656;28;20224;-81
2022/03/27 14:46:09;;;;;;;3.53;3.00;;;;;;;17.77;35.36;98714.09;6157767;28;20261;-81
2022/03/27 14:49:11;;;;;;;3.57;3.27;;;;;;;17.32;36.13;98712.81;6170615;28;20319;-84